Time;durP1;ratioP1;P1;durP2;ratioP2;P2;SDS_P1;SDS_P2;PMS_P1;PMS_P2;Temp;Humidity;BMP_temperature;BMP_pressure;BME280_temperature;BME280_humidity;BME280_pressure;Samples;Min_cycle;Max_cycle;Signal;HPM_P1;HPM_P2
2022/01/18 00:01:39;;;;;;;6.28;2.08;;;;;;;2.86;50.33;100825.44;4381358;32;32409;-81
2022/01/18 00:04:10;;;;;;;6.75;1.98;;;;;;;3.08;49.87;100802.75;4381186;32;32300;-81
2022/01/18 00:06:40;;;;;;;5.47;1.87;;;;;;;2.74;50.82;100816.50;4381291;32;31712;-82
2022/01/18 00:09:09;;;;;;;5.50;1.77;;;;;;;2.67;50.11;100815.28;4381691;32;35161;-82
2022/01/18 00:11:48;;;;;;;4.25;1.45;;;;;;;2.93;53.75;100824.78;4381639;32;33926;-83
2022/01/18 00:14:25;;;;;;;7.30;1.58;;;;;;;2.73;50.48;100830.19;4383100;32;33316;-83
2022/01/18 00:19:43;;;;;;;5.00;1.60;;;;;;;2.47;51.21;100844.09;4383831;32;34103;-84
2022/01/18 00:22:15;;;;;;;5.97;1.95;;;;;;;2.73;50.20;100844.59;4383547;32;35036;-85
2022/01/18 00:24:44;;;;;;;9.45;2.50;;;;;;;2.50;50.76;100859.25;4382852;32;33434;-88
2022/01/18 00:27:15;;;;;;;7.22;1.95;;;;;;;2.74;50.79;100840.87;4382831;32;33675;-88
2022/01/18 00:30:14;;;;;;;9.30;2.47;;;;;;;2.53;50.36;100845.44;4383345;32;34729;-87
2022/01/18 00:35:18;;;;;;;4.32;1.50;;;;;;;2.77;50.23;100861.44;4384941;32;31978;-87
2022/01/18 00:37:55;;;;;;;4.85;1.50;;;;;;;2.95;50.01;100871.59;4397475;32;33776;-86
2022/01/18 00:40:24;;;;;;;5.87;1.60;;;;;;;3.04;49.50;100879.94;4384858;32;33600;-87
2022/01/18 00:42:52;;;;;;;6.50;2.17;;;;;;;2.80;49.82;100883.75;4396552;32;34947;-87
2022/01/18 00:45:20;;;;;;;7.60;1.52;;;;;;;3.05;49.49;100877.09;4383029;32;31505;-87
2022/01/18 00:47:48;;;;;;;7.93;2.15;;;;;;;2.94;50.33;100874.44;4383278;32;34765;-87
2022/01/18 00:50:16;;;;;;;6.18;2.30;;;;;;;2.97;50.30;100896.72;4383023;32;32428;-86
2022/01/18 00:52:49;;;;;;;9.80;2.20;;;;;;;3.08;50.10;100887.69;4370587;32;32872;-87
2022/01/18 00:55:17;;;;;;;7.07;2.00;;;;;;;2.68;51.07;100909.16;4383607;32;31753;-87
2022/01/18 00:57:47;;;;;;;10.32;2.60;;;;;;;2.29;51.91;100887.13;4383366;32;33879;-87
2022/01/18 01:00:15;;;;;;;6.70;2.15;;;;;;;2.55;51.75;100897.66;4382857;32;32518;-87
2022/01/18 01:02:43;;;;;;;6.25;1.92;;;;;;;2.96;50.56;100903.12;4383194;32;34569;-87
2022/01/18 01:05:11;;;;;;;4.75;1.50;;;;;;;2.81;51.08;100912.56;4383160;32;33594;-88
2022/01/18 01:07:40;;;;;;;8.32;2.92;;;;;;;2.64;51.74;100907.69;4383212;32;33621;-88
2022/01/18 01:10:29;;;;;;;5.30;1.67;;;;;;;2.63;52.11;100909.53;4387352;32;34336;-88
2022/01/18 01:12:56;;;;;;;4.82;2.00;;;;;;;2.55;52.00;100924.75;4382680;32;33538;-87
2022/01/18 01:15:26;;;;;;;5.90;2.00;;;;;;;2.45;52.51;100924.66;4382923;32;33214;-87
2022/01/18 01:18:17;;;;;;;6.65;1.60;;;;;;;2.37;53.38;100934.41;4383344;32;33116;-88
2022/01/18 01:45:28;;;;;;;4.53;1.73;;;;;;;2.80;52.05;100939.81;4385944;32;32237;-87
2022/01/18 01:47:56;;;;;;;7.43;1.75;;;;;;;2.56;52.96;100943.59;4385428;32;31712;-88
2022/01/18 01:50:27;;;;;;;8.55;2.05;;;;;;;2.40;53.38;100936.84;4385528;32;34734;-87
2022/01/18 01:52:56;;;;;;;5.50;1.40;;;;;;;2.07;54.66;100952.16;4385724;32;33161;-87
2022/01/18 01:55:24;;;;;;;6.65;1.90;;;;;;;2.29;54.04;100944.00;4385832;32;33513;-88
2022/01/18 01:57:52;;;;;;;10.45;2.47;;;;;;;2.23;53.91;100949.06;4385339;32;33158;-88
2022/01/18 02:00:21;;;;;;;10.32;1.90;;;;;;;2.33;53.82;100951.87;4384942;32;33366;-88
2022/01/18 02:02:49;;;;;;;11.20;1.93;;;;;;;2.62;53.07;100947.62;4383032;32;34406;-87
2022/01/18 02:05:20;;;;;;;6.45;2.30;;;;;;;2.55;53.47;100954.56;4382399;32;32740;-88
2022/01/18 02:07:48;;;;;;;13.77;2.12;;;;;;;2.75;52.90;100961.00;4382732;32;33387;-88
2022/01/18 02:10:16;;;;;;;5.15;1.60;;;;;;;2.78;52.85;100958.91;4382637;32;33883;-87
2022/01/18 02:12:44;;;;;;;5.82;2.08;;;;;;;2.33;53.69;100958.16;4382466;32;33533;-88
2022/01/18 02:15:17;;;;;;;7.10;1.62;;;;;;;2.55;52.85;100976.25;4382426;32;34350;-89
2022/01/18 02:23:20;;;;;;;9.18;2.42;;;;;;;2.46;53.79;100963.44;4384379;32;33840;-88
2022/01/18 02:25:47;;;;;;;7.97;2.35;;;;;;;2.71;53.22;100973.97;4382619;32;33444;-89
2022/01/18 02:28:17;;;;;;;7.90;2.00;;;;;;;2.42;53.89;100970.97;4382256;32;32340;-88
2022/01/18 02:30:45;;;;;;;6.72;2.05;;;;;;;2.94;52.64;100978.31;4382676;32;34583;-88
2022/01/18 02:33:14;;;;;;;9.60;2.15;;;;;;;3.05;52.43;100965.72;4382431;32;32859;-89
2022/01/18 02:35:42;;;;;;;6.10;1.62;;;;;;;2.61;53.29;100968.44;4382574;32;34914;-89
2022/01/18 02:38:10;;;;;;;8.30;2.43;;;;;;;2.50;53.87;100973.03;4382813;32;33732;-89
2022/01/18 02:40:46;;;;;;;9.65;2.45;;;;;;;2.65;53.46;100964.47;4383580;32;33290;-88
2022/01/18 02:46:00;;;;;;;5.85;1.35;;;;;;;2.61;53.70;100960.31;4396982;32;34071;-88
2022/01/18 02:48:28;;;;;;;5.97;1.87;;;;;;;2.56;53.40;100965.28;4382551;32;33437;-89
2022/01/18 02:50:59;;;;;;;6.12;1.70;;;;;;;2.43;53.77;100969.13;4382857;32;33617;-89
2022/01/18 02:53:26;;;;;;;10.13;1.83;;;;;;;2.25;53.82;100972.31;4381631;32;35328;-88
2022/01/18 02:55:56;;;;;;;5.25;1.87;;;;;;;2.57;53.18;100968.84;4382245;32;32574;-89
2022/01/18 02:58:31;;;;;;;10.57;1.77;;;;;;;2.29;54.27;100979.22;4382443;32;33022;-89
2022/01/18 03:03:37;;;;;;;11.25;2.72;;;;;;;2.33;54.22;100997.94;4395376;32;35193;-89
2022/01/18 03:06:06;;;;;;;6.78;1.75;;;;;;;2.63;53.56;100998.12;4382276;32;34080;-89
2022/01/18 03:08:34;;;;;;;7.43;2.28;;;;;;;2.78;53.17;100996.00;4382553;32;34113;-89
2022/01/18 03:11:02;;;;;;;7.10;2.50;;;;;;;2.68;53.26;101005.88;4381979;32;32192;-88
2022/01/18 03:13:32;;;;;;;6.30;1.52;;;;;;;2.25;54.20;101010.25;4382099;32;34909;-88
2022/01/18 03:16:00;;;;;;;7.05;1.55;;;;;;;2.74;53.28;101022.50;4382208;32;33628;-89
2022/01/18 03:18:28;;;;;;;8.52;2.05;;;;;;;2.74;52.94;101017.06;4382154;32;33409;-88
2022/01/18 03:20:56;;;;;;;6.75;1.77;;;;;;;2.20;54.32;101034.13;4381741;32;33385;-88
2022/01/18 03:23:27;;;;;;;4.43;1.50;;;;;;;1.84;55.87;101037.06;4370090;32;32900;-89
2022/01/18 03:25:58;;;;;;;7.43;2.40;;;;;;;2.08;55.19;101040.50;4381890;32;33090;-88
2022/01/18 03:28:27;;;;;;;5.72;1.73;;;;;;;1.89;55.77;101046.53;4382294;32;33274;-88
2022/01/18 03:30:58;;;;;;;9.25;2.05;;;;;;;2.39;54.28;101043.50;4381977;32;33255;-88
2022/01/18 03:33:28;;;;;;;5.20;1.40;;;;;;;2.38;54.11;101056.19;4382191;32;34114;-88
2022/01/18 03:35:57;;;;;;;5.95;1.50;;;;;;;2.44;53.87;101054.81;4381615;32;34235;-89
2022/01/18 03:38:30;;;;;;;5.65;1.45;;;;;;;2.16;54.50;101057.03;4381788;32;31532;-89
2022/01/18 03:41:01;;;;;;;7.35;1.90;;;;;;;2.17;54.63;101063.28;4381475;32;32467;-89
2022/01/18 03:43:30;;;;;;;4.32;1.33;;;;;;;2.10;54.88;101078.31;4381945;32;34017;-88
2022/01/18 03:46:04;;;;;;;6.43;1.45;;;;;;;1.83;55.57;101090.34;4381607;32;33733;-88
2022/01/18 03:48:38;;;;;;;11.52;1.80;;;;;;;1.54;56.34;101076.31;4382780;32;33428;-88
2022/01/18 03:51:09;;;;;;;11.85;1.80;;;;;;;2.17;55.05;101075.00;4381776;32;32304;-89
2022/01/18 03:53:38;;;;;;;6.57;2.10;;;;;;;2.16;54.71;101075.97;4381833;32;34929;-89
2022/01/18 03:56:06;;;;;;;7.80;1.80;;;;;;;2.32;54.76;101083.75;4381553;32;34141;-89
2022/01/18 03:58:34;;;;;;;7.03;1.35;;;;;;;1.99;54.95;101089.97;4381608;32;33235;-88
2022/01/18 04:01:03;;;;;;;6.22;1.90;;;;;;;2.44;53.84;101082.78;4393755;32;33133;-89
2022/01/18 04:03:31;;;;;;;6.72;1.90;;;;;;;2.70;53.08;101090.63;4381775;32;35480;-89
2022/01/18 04:05:59;;;;;;;8.80;2.05;;;;;;;2.68;53.18;101087.19;4383627;32;33843;-89
2022/01/18 04:08:27;;;;;;;6.20;1.40;;;;;;;2.40;53.80;101094.84;4383655;32;31632;-89
2022/01/18 04:10:55;;;;;;;5.65;1.65;;;;;;;2.26;54.14;101098.66;4384008;32;34223;-89
2022/01/18 04:13:26;;;;;;;7.35;1.87;;;;;;;2.26;54.34;101106.78;4383632;32;33452;-88
2022/01/18 04:15:54;;;;;;;6.97;1.50;;;;;;;2.52;54.07;101111.97;4370949;32;33161;-89
2022/01/18 04:19:24;;;;;;;8.57;2.05;;;;;;;2.13;54.52;101108.72;4383476;32;32353;-88
2022/01/18 04:29:11;;;;;;;7.47;1.85;;;;;;;2.86;52.61;101131.78;4395802;32;32818;-89
2022/01/18 04:31:39;;;;;;;7.22;1.58;;;;;;;2.78;53.01;101120.69;4383061;32;32617;-89
2022/01/18 04:34:07;;;;;;;7.60;1.95;;;;;;;2.81;52.75;101126.72;4383078;32;32894;-89
2022/01/18 04:36:38;;;;;;;5.57;1.75;;;;;;;2.92;52.38;101118.59;4383316;32;33833;-90
2022/01/18 04:39:06;;;;;;;13.75;2.05;;;;;;;3.16;51.59;101121.16;4383396;32;33375;-89
2022/01/18 04:41:35;;;;;;;7.53;1.80;;;;;;;2.84;52.27;101131.91;4383105;32;33191;-90
2022/01/18 04:44:16;;;;;;;6.40;1.35;;;;;;;2.90;52.23;101126.00;4383470;32;35203;-89
2022/01/18 04:49:33;;;;;;;8.52;1.80;;;;;;;3.00;51.79;101146.94;4399733;32;34077;-89
2022/01/18 04:52:00;;;;;;;8.07;1.52;;;;;;;3.16;51.51;101147.41;4386237;32;33935;-88
2022/01/18 04:54:30;;;;;;;8.45;1.98;;;;;;;2.90;52.08;101158.53;4387177;32;33043;-89
2022/01/18 04:59:30;;;;;;;7.53;1.67;;;;;;;3.25;51.38;101157.50;4386091;32;32675;-89
2022/01/18 05:02:03;;;;;;;6.12;1.58;;;;;;;2.92;52.06;101156.56;4391929;32;34006;-91
2022/01/18 05:04:32;;;;;;;7.85;1.85;;;;;;;2.70;52.65;101156.53;4387439;32;32912;-91
2022/01/18 05:07:01;;;;;;;6.55;2.25;;;;;;;2.65;52.84;101156.06;4385899;32;32662;-90
2022/01/18 05:09:29;;;;;;;6.85;1.65;;;;;;;2.34;53.75;101159.47;4385962;32;33318;-90
2022/01/18 05:12:06;;;;;;;8.98;1.90;;;;;;;1.92;55.16;101159.13;4384565;32;32320;-90
2022/01/18 05:14:35;;;;;;;7.72;1.90;;;;;;;2.19;54.66;101158.81;4382560;32;33710;-90
2022/01/18 05:24:34;;;;;;;7.07;1.58;;;;;;;1.90;55.66;101156.56;4382560;32;32782;-90
2022/01/18 05:27:04;;;;;;;7.60;1.50;;;;;;;1.84;56.10;101161.56;4383063;32;33397;-90
2022/01/18 05:29:33;;;;;;;7.30;1.73;;;;;;;1.96;56.14;101153.34;4383062;32;33272;-90
2022/01/18 05:32:05;;;;;;;9.30;2.45;;;;;;;1.63;57.07;101164.91;4388594;32;33367;-85
2022/01/18 05:34:33;;;;;;;16.85;6.50;;;;;;;1.58;57.20;101166.25;4409479;32;34622;-82
2022/01/18 05:37:04;;;;;;;14.63;4.12;;;;;;;1.56;57.92;101174.47;4385071;32;33385;-83
2022/01/18 05:39:32;;;;;;;9.90;3.05;;;;;;;1.81;57.39;101178.91;4398221;32;32659;-81
2022/01/18 05:42:01;;;;;;;12.15;3.05;;;;;;;1.68;57.19;101182.66;4385385;32;32230;-83
2022/01/18 05:44:29;;;;;;;11.40;3.97;;;;;;;1.96;56.11;101201.22;4410290;32;34291;-83
2022/01/18 05:46:59;;;;;;;10.18;3.55;;;;;;;2.18;56.20;101198.59;4410063;32;32537;-83
2022/01/18 05:49:27;;;;;;;12.43;2.65;;;;;;;2.16;55.88;101195.12;4397453;32;32894;-83
2022/01/18 05:51:58;;;;;;;5.62;1.73;;;;;;;2.31;55.81;101193.09;4398105;32;33723;-83
2022/01/18 05:54:26;;;;;;;6.03;1.98;;;;;;;1.78;57.02;101208.03;4397452;32;34620;-83
2022/01/18 05:56:54;;;;;;;9.25;3.00;;;;;;;1.92;56.43;101203.31;4410092;32;32370;-79
2022/01/18 05:59:23;;;;;;;15.05;5.93;;;;;;;1.44;58.28;101207.84;4409901;32;32928;-78
2022/01/18 06:02:01;;;;;;;6.85;2.28;;;;;;;1.47;58.84;101206.75;4409695;32;32229;-81
2022/01/18 06:07:23;;;;;;;14.67;4.50;;;;;;;1.36;59.02;101217.50;4399209;32;32399;-82
2022/01/18 06:09:53;;;;;;;16.95;4.70;;;;;;;1.90;57.49;101226.94;4398062;32;34038;-79
2022/01/18 06:12:20;;;;;;;33.63;13.52;;;;;;;1.79;58.42;101226.87;4397724;32;33545;-80
2022/01/18 06:14:48;;;;;;;16.02;5.87;;;;;;;1.81;57.99;101224.06;4384120;32;32692;-81
2022/01/18 06:17:16;;;;;;;14.48;5.00;;;;;;;1.91;57.53;101228.66;4394964;32;33276;-81
2022/01/18 06:19:44;;;;;;;9.52;2.85;;;;;;;2.38;56.21;101226.00;4395566;32;32820;-81
2022/01/18 06:22:13;;;;;;;12.98;5.25;;;;;;;2.07;56.84;101230.19;4407821;32;34396;-82
2022/01/18 06:24:41;;;;;;;18.87;7.85;;;;;;;2.18;56.37;101233.78;4395756;32;35140;-81
2022/01/18 06:27:11;;;;;;;10.27;2.60;;;;;;;2.05;57.01;101230.28;4394909;32;33462;-81
2022/01/18 06:29:39;;;;;;;7.07;2.92;;;;;;;2.16;56.78;101227.63;4382975;32;31605;-81
2022/01/18 06:32:07;;;;;;;8.05;2.70;;;;;;;1.96;57.60;101231.00;4396238;32;33570;-81
2022/01/18 06:34:35;;;;;;;8.18;2.87;;;;;;;2.12;57.52;101226.13;4409148;32;35268;-81
2022/01/18 06:37:06;;;;;;;10.57;3.33;;;;;;;1.84;58.13;101226.53;4397190;32;33765;-81
2022/01/18 06:39:35;;;;;;;8.57;3.12;;;;;;;1.95;57.63;101226.59;4397803;32;33409;-81
2022/01/18 06:42:10;;;;;;;10.38;3.28;;;;;;;2.28;56.88;101237.53;4397529;32;32322;-81
2022/01/18 06:44:41;;;;;;;10.82;2.95;;;;;;;2.49;56.28;101239.56;4397238;32;33415;-81
2022/01/18 06:47:09;;;;;;;9.57;2.53;;;;;;;2.55;56.04;101245.38;4397521;32;33738;-81
2022/01/18 06:49:37;;;;;;;7.55;2.78;;;;;;;2.65;55.72;101248.19;4397737;32;33502;-81
2022/01/18 06:52:05;;;;;;;8.33;2.33;;;;;;;2.88;55.24;101262.66;4397630;32;32147;-80
2022/01/18 06:54:32;;;;;;;9.77;3.00;;;;;;;2.87;55.22;101261.81;4398301;32;33686;-81
2022/01/18 06:57:00;;;;;;;9.18;2.30;;;;;;;2.94;54.90;101260.34;4385783;32;33007;-81
2022/01/18 06:59:28;;;;;;;7.72;2.70;;;;;;;3.15;54.41;101263.19;4397995;32;33302;-81
2022/01/18 07:01:56;;;;;;;7.47;2.45;;;;;;;3.19;54.24;101267.37;4387383;32;32264;-79
2022/01/18 07:04:23;;;;;;;12.32;3.05;;;;;;;3.17;54.32;101268.50;4419380;32;33887;-80
2022/01/18 07:06:51;;;;;;;8.40;2.97;;;;;;;2.96;54.86;101266.50;4413024;32;34242;-78
2022/01/18 07:09:23;;;;;;;8.40;2.12;;;;;;;3.08;55.07;101259.25;4400361;32;31832;-80
2022/01/18 07:11:52;;;;;;;12.60;2.50;;;;;;;2.76;55.68;101267.19;4400350;32;33395;-81
2022/01/18 07:14:20;;;;;;;9.82;2.60;;;;;;;2.74;56.29;101261.03;4399989;32;34376;-80
2022/01/18 07:16:48;;;;;;;10.70;2.70;;;;;;;2.84;56.15;101267.47;4398148;32;33666;-81
2022/01/18 07:19:16;;;;;;;9.02;2.20;;;;;;;2.50;57.09;101254.84;4397353;32;31765;-81
2022/01/18 07:21:44;;;;;;;11.68;2.70;;;;;;;2.98;55.91;101256.41;4397138;32;33663;-80
2022/01/18 07:24:17;;;;;;;7.65;2.30;;;;;;;2.84;56.26;101256.63;4396871;32;33966;-81
2022/01/18 07:26:46;;;;;;;9.48;2.50;;;;;;;3.03;55.65;101255.16;4397661;32;34134;-81
2022/01/18 07:29:19;;;;;;;9.48;2.47;;;;;;;3.13;55.65;101265.16;4409689;32;33293;-81
2022/01/18 07:31:50;;;;;;;12.77;3.10;;;;;;;2.72;56.82;101254.88;4397936;32;32286;-81
2022/01/18 07:34:18;;;;;;;10.75;2.50;;;;;;;3.15;55.91;101254.19;4396709;32;32895;-81
2022/01/18 07:36:46;;;;;;;8.73;2.75;;;;;;;3.05;55.93;101267.63;4396822;32;33171;-81
2022/01/18 07:39:14;;;;;;;15.10;4.62;;;;;;;2.85;56.63;101266.47;4398134;32;33103;-81
2022/01/18 07:41:42;;;;;;;9.00;3.58;;;;;;;2.82;56.78;101258.59;4398696;32;32255;-81
2022/01/18 07:44:10;;;;;;;14.52;5.55;;;;;;;2.72;57.19;101264.84;4398672;32;32873;-81
2022/01/18 07:46:38;;;;;;;12.63;4.00;;;;;;;2.86;57.16;101268.22;4398696;32;32039;-81
2022/01/18 07:49:07;;;;;;;13.55;4.93;;;;;;;2.86;56.87;101270.06;4398546;32;32905;-81
2022/01/18 07:51:34;;;;;;;24.10;8.45;;;;;;;2.96;56.83;101280.06;4398840;32;33807;-81
2022/01/18 07:54:06;;;;;;;16.73;5.57;;;;;;;2.88;57.11;101277.09;4398689;32;34545;-81
2022/01/18 07:56:34;;;;;;;41.00;14.30;;;;;;;2.76;57.49;101288.88;4398059;32;32640;-81
2022/01/18 07:59:27;;;;;;;49.20;15.93;;;;;;;2.93;57.15;101287.56;4401119;32;33601;-81
2022/01/18 08:01:58;;;;;;;37.90;12.07;;;;;;;2.82;57.04;101301.97;4398656;32;34192;-81
2022/01/18 08:04:27;;;;;;;40.03;11.52;;;;;;;3.34;56.24;101305.09;4399054;32;35330;-81
2022/01/18 08:06:54;;;;;;;36.45;12.00;;;;;;;3.10;56.51;101305.22;4410712;32;32580;-81
2022/01/18 08:09:22;;;;;;;14.48;3.62;;;;;;;3.21;56.34;101307.97;4398642;32;33086;-80
2022/01/18 08:11:52;;;;;;;53.30;15.50;;;;;;;3.06;57.01;101309.16;4398969;32;34515;-81
2022/01/18 08:14:20;;;;;;;29.55;10.63;;;;;;;2.98;57.93;101301.63;4386029;32;33741;-81
2022/01/18 08:17:00;;;;;;;23.55;8.15;;;;;;;2.50;58.28;101315.31;4398418;32;33321;-81
2022/01/18 08:19:31;;;;;;;13.57;3.92;;;;;;;2.50;58.49;101328.00;4399762;32;33039;-81
2022/01/18 08:21:59;;;;;;;19.75;5.05;;;;;;;2.70;57.82;101324.59;4398096;32;33296;-80
2022/01/18 08:24:27;;;;;;;22.73;6.55;;;;;;;2.61;58.27;101336.16;4398312;32;33414;-81
2022/01/18 08:26:55;;;;;;;12.90;3.42;;;;;;;2.75;58.26;101349.50;4398298;32;33330;-80
2022/01/18 08:29:23;;;;;;;26.23;8.55;;;;;;;2.71;58.29;101348.03;4398516;32;33424;-81
2022/01/18 08:32:14;;;;;;;20.02;6.70;;;;;;;2.86;58.32;101363.09;4400345;32;32219;-80
2022/01/18 08:34:41;;;;;;;27.45;9.40;;;;;;;3.00;57.59;101347.62;4385716;32;33694;-80
2022/01/18 08:37:10;;;;;;;18.83;5.75;;;;;;;2.67;59.02;101351.09;4398382;32;34130;-80
2022/01/18 08:39:38;;;;;;;11.30;3.65;;;;;;;2.68;58.88;101348.25;4385458;32;31989;-80
2022/01/18 08:42:09;;;;;;;12.40;3.78;;;;;;;2.62;59.16;101352.28;4411095;32;34363;-81
2022/01/18 08:44:37;;;;;;;28.83;8.55;;;;;;;2.62;58.63;101355.00;4398175;32;33038;-80
2022/01/18 08:47:06;;;;;;;24.37;7.72;;;;;;;2.56;59.18;101366.34;4398941;32;34214;-80
2022/01/18 08:49:34;;;;;;;16.27;4.60;;;;;;;3.03;57.54;101356.38;4385345;32;32565;-81
2022/01/18 08:52:01;;;;;;;35.22;9.07;;;;;;;2.81;58.17;101365.31;4385672;32;32402;-81
2022/01/18 08:54:30;;;;;;;11.88;3.95;;;;;;;2.83;57.85;101367.91;4410705;32;35237;-80
2022/01/18 08:56:57;;;;;;;15.77;4.82;;;;;;;3.13;57.03;101370.94;4398273;32;33088;-80
2022/01/18 08:59:30;;;;;;;37.47;12.80;;;;;;;3.00;57.61;101372.87;4410761;32;33321;-80
2022/01/18 09:01:59;;;;;;;52.42;21.73;;;;;;;3.38;56.42;101371.72;4385830;32;32276;-80
2022/01/18 09:04:28;;;;;;;30.27;11.23;;;;;;;3.39;56.19;101377.00;4398192;32;33692;-80
2022/01/18 09:06:57;;;;;;;18.58;5.53;;;;;;;3.70;55.69;101390.88;4410644;32;34541;-80
2022/01/18 09:09:26;;;;;;;21.60;4.57;;;;;;;3.18;56.15;101386.88;4410832;32;33529;-80
2022/01/18 09:11:53;;;;;;;12.90;4.28;;;;;;;3.50;55.64;101382.47;4410652;32;33982;-81
2022/01/18 09:14:21;;;;;;;10.15;3.35;;;;;;;3.63;54.83;101369.63;4385164;32;34298;-80
2022/01/18 09:16:49;;;;;;;10.43;3.92;;;;;;;3.15;56.16;101376.25;4410572;32;34513;-81
2022/01/18 09:19:18;;;;;;;14.90;3.55;;;;;;;3.21;56.47;101384.78;4398133;32;33452;-80
2022/01/18 09:21:49;;;;;;;12.20;3.40;;;;;;;3.16;56.72;101394.25;4385129;32;33310;-80
2022/01/18 09:24:27;;;;;;;14.48;3.75;;;;;;;3.17;56.71;101396.00;4401166;32;35494;-81
2022/01/18 09:26:55;;;;;;;10.32;2.65;;;;;;;3.44;56.33;101398.34;4385353;32;32320;-81
2022/01/18 09:29:23;;;;;;;9.48;2.40;;;;;;;3.48;55.21;101408.00;4398298;32;34154;-81
2022/01/18 09:31:53;;;;;;;11.73;2.65;;;;;;;3.71;54.25;101417.03;4385569;32;33127;-80
2022/01/18 09:34:21;;;;;;;11.45;3.70;;;;;;;3.28;55.65;101418.56;4385152;32;33879;-81
2022/01/18 09:36:51;;;;;;;14.50;3.05;;;;;;;3.52;54.99;101423.06;4385591;32;33334;-80
2022/01/18 09:39:19;;;;;;;17.62;2.67;;;;;;;3.59;54.97;101422.44;4410281;32;32189;-80
2022/01/18 09:41:51;;;;;;;10.05;2.92;;;;;;;3.56;55.01;101424.53;4397813;32;32234;-81
2022/01/18 09:44:20;;;;;;;13.18;2.97;;;;;;;3.39;55.73;101414.16;4410752;32;34623;-80
2022/01/18 09:46:50;;;;;;;13.50;2.67;;;;;;;3.28;55.98;101412.25;4398333;32;34150;-80
2022/01/18 09:49:24;;;;;;;6.70;2.20;;;;;;;3.50;55.02;101422.31;4398483;32;32021;-80
2022/01/18 09:51:52;;;;;;;13.38;2.72;;;;;;;3.55;54.57;101437.25;4398215;32;33789;-81
2022/01/18 09:54:22;;;;;;;11.50;2.95;;;;;;;3.15;55.43;101423.25;4397824;32;34524;-81
2022/01/18 09:56:54;;;;;;;13.15;3.25;;;;;;;3.91;54.00;101416.25;4385805;32;32511;-81
2022/01/18 09:59:25;;;;;;;13.85;2.92;;;;;;;3.64;54.37;101416.66;4410231;32;32717;-80
2022/01/18 10:01:53;;;;;;;8.95;2.72;;;;;;;3.83;54.01;101424.19;4371566;32;32581;-81
2022/01/18 10:04:25;;;;;;;11.05;2.72;;;;;;;3.45;54.45;101428.09;4398603;32;32909;-80
2022/01/18 10:06:57;;;;;;;13.13;5.00;;;;;;;3.95;54.04;101426.75;4387205;32;33340;-80
2022/01/18 10:09:30;;;;;;;10.98;4.45;;;;;;;4.17;53.10;101416.87;4397865;32;31439;-80
2022/01/18 10:12:07;;;;;;;13.20;2.95;;;;;;;3.89;53.64;101421.84;4400581;32;34419;-80
2022/01/18 10:14:43;;;;;;;17.42;5.68;;;;;;;4.13;52.78;101432.56;4399438;32;32846;-80
2022/01/18 10:17:15;;;;;;;21.20;7.20;;;;;;;4.24;52.96;101434.41;4385070;32;34161;-80
2022/01/18 10:19:50;;;;;;;8.40;3.33;;;;;;;4.64;52.08;101435.53;4410439;32;31816;-80
2022/01/18 10:22:30;;;;;;;12.98;3.67;;;;;;;4.31;51.66;101446.50;4395865;32;32287;-80
2022/01/18 10:25:12;;;;;;;14.75;5.62;;;;;;;4.33;52.37;101427.34;4394931;32;33956;-80
2022/01/18 10:27:40;;;;;;;9.75;3.42;;;;;;;4.74;51.96;101438.34;4394961;32;34816;-80
2022/01/18 10:30:15;;;;;;;10.50;3.15;;;;;;;4.54;51.21;101434.59;4399011;32;33452;-80
2022/01/18 10:33:10;;;;;;;10.07;2.42;;;;;;;4.46;51.96;101439.81;4407506;32;32962;-80
2022/01/18 10:36:03;;;;;;;10.05;2.80;;;;;;;4.23;52.11;101444.41;4394619;32;32720;-80
2022/01/18 10:38:33;;;;;;;8.15;2.62;;;;;;;4.36;51.84;101429.81;4394730;32;32338;-80
2022/01/18 10:41:24;;;;;;;10.13;2.83;;;;;;;4.46;50.96;101420.78;4394786;32;32992;-80
2022/01/18 10:44:03;;;;;;;9.82;2.47;;;;;;;5.03;50.81;101408.69;4382597;32;33840;-80
2022/01/18 10:46:40;;;;;;;15.52;3.25;;;;;;;4.74;50.90;101411.16;4406936;32;33029;-80
2022/01/18 10:49:09;;;;;;;8.98;2.78;;;;;;;4.52;51.69;101419.41;4407444;32;34229;-80
2022/01/18 10:51:40;;;;;;;10.60;2.60;;;;;;;4.18;51.80;101421.31;4370019;32;33201;-80
2022/01/18 10:54:10;;;;;;;7.85;2.70;;;;;;;4.60;50.91;101425.03;4407325;32;34436;-80
2022/01/18 10:56:43;;;;;;;12.75;3.47;;;;;;;4.90;50.48;101411.59;4407056;32;34353;-80
2022/01/18 10:59:22;;;;;;;10.00;2.83;;;;;;;5.25;49.28;101415.84;4406907;32;32745;-80
2022/01/18 11:02:04;;;;;;;12.20;4.75;;;;;;;4.54;50.73;101417.41;4382116;32;32572;-80
2022/01/18 11:04:42;;;;;;;7.55;2.78;;;;;;;5.01;50.22;101416.13;4407076;32;32219;-80
2022/01/18 11:07:11;;;;;;;11.43;3.28;;;;;;;4.70;49.44;101420.56;4394290;32;34131;-81
2022/01/18 11:09:39;;;;;;;9.75;2.30;;;;;;;5.22;48.10;101418.81;4407014;32;32417;-80
2022/01/18 11:12:08;;;;;;;12.37;2.42;;;;;;;5.27;48.40;101422.88;4394446;32;31843;-80
2022/01/18 11:14:45;;;;;;;8.90;2.60;;;;;;;4.82;49.83;101429.53;4406528;32;33001;-80
2022/01/18 11:17:24;;;;;;;12.32;3.15;;;;;;;4.89;49.93;101436.19;4394993;32;34506;-80
2022/01/18 11:19:57;;;;;;;12.25;3.12;;;;;;;5.16;49.42;101444.75;4406748;32;34212;-80
2022/01/18 11:22:27;;;;;;;14.40;3.03;;;;;;;5.00;49.12;101428.00;4394430;32;32271;-81
2022/01/18 11:24:58;;;;;;;6.00;2.47;;;;;;;5.06;49.55;101430.19;4406706;32;33540;-81
2022/01/18 11:27:28;;;;;;;9.90;2.22;;;;;;;5.25;48.42;101437.63;4406827;32;34358;-80
2022/01/18 11:29:57;;;;;;;6.78;2.30;;;;;;;4.90;48.96;101436.06;4381799;32;32530;-80
2022/01/18 11:32:27;;;;;;;11.80;2.80;;;;;;;4.86;48.92;101433.72;4394028;32;33211;-81
2022/01/18 11:35:01;;;;;;;6.03;1.90;;;;;;;4.70;49.44;101442.31;4406544;32;32287;-80
2022/01/18 11:37:38;;;;;;;12.37;2.92;;;;;;;4.89;49.20;101438.91;4406597;32;34291;-81
2022/01/18 11:40:16;;;;;;;5.65;2.37;;;;;;;5.02;48.60;101425.12;4394011;32;32433;-80
2022/01/18 11:42:49;;;;;;;9.00;2.22;;;;;;;5.11;48.26;101429.78;4406569;32;33903;-81
2022/01/18 11:45:35;;;;;;;10.50;3.05;;;;;;;5.07;48.55;101455.53;4406703;32;34572;-80
2022/01/18 11:48:06;;;;;;;;;;;;;;;4.73;49.13;101474.69;4382014;32;33029;-81
2022/01/18 11:51:00;;;;;;;13.80;3.83;;;;;;;5.12;48.44;101447.84;4393799;32;33707;-81
2022/01/18 11:56:36;;;;;;;12.35;3.22;;;;;;;5.04;48.77;101461.25;4406672;32;33941;-81
2022/01/18 11:59:17;;;;;;;13.70;2.62;;;;;;;5.14;47.78;101449.44;4407470;32;34266;-81
2022/01/18 12:01:49;;;;;;;9.93;2.60;;;;;;;5.07;48.56;101448.25;4395400;32;34517;-81
2022/01/18 12:07:36;;;;;;;7.32;2.87;;;;;;;5.00;48.33;101433.44;4408150;32;33911;-80
2022/01/18 12:10:24;;;;;;;20.90;6.68;;;;;;;5.09;48.00;101429.06;4406607;32;33499;-82
2022/01/18 12:12:54;;;;;;;15.23;5.25;;;;;;;5.18;47.59;101425.56;4393821;32;32600;-81
2022/01/18 12:15:22;;;;;;;23.50;9.10;;;;;;;5.30;47.65;101443.53;4394705;32;31806;-81
2022/01/18 12:17:57;;;;;;;14.77;3.87;;;;;;;5.43;47.05;101436.03;4406996;32;32258;-81
2022/01/18 12:20:40;;;;;;;10.98;3.40;;;;;;;5.32;47.83;101432.50;4396329;32;33098;-81
2022/01/18 12:23:13;;;;;;;12.35;3.05;;;;;;;5.29;47.50;101449.97;4396110;32;32511;-81
2022/01/18 12:26:21;;;;;;;12.23;4.00;;;;;;;4.90;48.63;101444.22;4384976;32;31733;-81
2022/01/18 12:29:18;;;;;;;17.05;6.53;;;;;;;5.09;48.34;101459.00;4398697;32;33861;-81
2022/01/18 12:34:37;;;;;;;8.85;3.33;;;;;;;5.30;47.83;101460.72;4410834;32;32651;-81
2022/01/18 12:37:05;;;;;;;15.48;3.65;;;;;;;4.76;48.45;101449.97;4410970;32;33404;-81
2022/01/18 12:39:52;;;;;;;13.73;3.15;;;;;;;4.90;48.45;101463.28;4410696;32;33714;-81
2022/01/18 12:45:27;;;;;;;9.57;2.60;;;;;;;4.80;48.58;101469.59;4410682;32;32573;-81
2022/01/18 12:48:02;;;;;;;10.57;3.70;;;;;;;5.34;48.88;101466.78;4398191;32;31617;-80
2022/01/18 12:50:37;;;;;;;12.30;3.45;;;;;;;5.10;49.12;101467.03;4398174;32;32206;-81
2022/01/18 12:53:08;;;;;;;11.10;2.92;;;;;;;4.83;49.45;101475.66;4398061;32;33905;-81
2022/01/18 12:55:38;;;;;;;9.05;2.83;;;;;;;4.94;49.05;101467.47;4410661;32;33745;-80
2022/01/18 12:58:38;;;;;;;13.65;4.15;;;;;;;4.90;48.43;101457.81;4398223;32;31870;-81
2022/01/18 13:01:13;;;;;;;12.40;3.12;;;;;;;5.05;48.66;101466.56;4398560;32;33677;-81
2022/01/18 13:03:47;;;;;;;11.00;3.72;;;;;;;5.20;48.59;101473.38;4398263;32;35271;-81
2022/01/18 13:06:20;;;;;;;12.80;3.05;;;;;;;4.93;48.98;101460.28;4398247;32;32271;-81